หน้าหลัก
METAR-TAF:

METAR-TAF

ท่าอากาศยาน :

Rostock, เยอรมนี

ละติจูด: 53-55N, ลองจิจูด: 012-17E, ความสูง: 40 ม.

การสังเกตสภาพอากาศปัจจุบัน

รายงานได้ทำขึ้นเมื่อ 23 นาทีที่แล้ว ณ เวลา 03:20 UTC
ลมสงบ
อุณหภูมิ 14°C
ความชื้น 100%
ความกดอากาศ 1022 hPa
ทัศนวิสัย 10 กม. หรือมากกว่า
มีเมฆกระจายเป็นบางส่วนที่ความสูง 4000 ฟุต
หมอกตื้น,

METAR: ETNL 190320Z 00000KT 9999 MIFG SCT040 14/14 Q1022 BLU+

เวลา: 05:43 (03:43 UTC)

การพยากรณ์

รายงานได้ทำขึ้นเมื่อ 5 ชั่วโมงและ 40 นาทีที่แล้ว ณ เวลา 22:03 UTC
การพยากรณ์มีผลตั้งแต่วันที่ 18 ณ เวลา 23 UTC จนถึงวันที่ 19 ณ เวลา 11 UTC
ลม 8 นอตจากตะวันตก
ทัศนวิสัย 10 กม. หรือมากกว่า
มีเมฆน้อยที่ความสูง 5000 ฟุต
ชั่วคราว
ตั้งแต่วันที่ 19 ณ เวลา 02 UTC จนถึงวันที่ 19 ณ เวลา 05 UTC
ลม 1 นอตจากทิศทางซึ่งแปรผันได้
ทัศนวิสัย: 2000 ม.
ท้องฟ้าแจ่มใส
หมอกตื้น,

TAF: ETNL 182203Z 1823/1911 26008KT 9999 NSW FEW050 TEMPO 1902/1905 VRB01KT 2000 MIFG SKC

สังเกตการณ์สภาพอากาศและพยากรณ์อากาศของสนามบินมากกว่า 4000 แห่ง (รายงาน METAR และ TAF).

สถานีที่ดูได้จะแสดงไว้ด้วยจุดสีเหลืองและสีแดงบนแผนที่.

เลื่อนเมาส์ไปเหนือจุดเพื่อดูชื่อสถานี.

แล้วคลิกเพื่อดูสังเกตการณ์และการพยากรณ์สภาพอากาศ.

ในการเปลี่ยนแผนที่: คลิกที่ปุ่มสีเขียวที่มีกากบาทสีดำเพื่อซูมเข้า; ที่ปุ่มสีเขียวที่มีขีดเพื่อซูมออก; หรือที่ลูกศรสีเขียวเพื่อไปยังแผนที่ที่อยู่ติดกัน.


METAR-TAF: